KROA/ROA METAR and TAF weather

Enter ICAO airport designator
Station Type Date Time Source
KROA METAR 2022/12/10 01:54 UTC NOAA

KROA 100154Z 12005KT 10SM OVC017 07/04 A3024 RMK AO2 SLP244 T00720039


Station Type Date Time Source
KROA Decoded METAR 2022/12/10 01:54 UTC NOAA

ROANOKE REGIONAL AIRPORT, VA, United States (KROA) 37-19N 079-58W 362M
Dec 09, 2022 - 08:54 PM EST / 2022.12.10 0154 UTC
Wind: from the ESE (120 degrees) at 6 MPH (5 KT):0
Visibility: 10 mile(s):0
Sky conditions: overcast
Temperature: 45.0 F (7.2 C)
Dew Point: 39.0 F (3.9 C)
Relative Humidity: 79%
Pressure (altimeter): 30.24 in. Hg (1024 hPa)
ob: KROA 100154Z 12005KT 10SM OVC017 07/04 A3024 RMK AO2 SLP244 T00720039
cycle: 2

Station Type Date Time Source
KROA TAF 2022/12/09 18:39 UTC NOAA

TAF KROA 091736Z 0918/1018 12003KT P6SM SCT009 OVC018
FM100300 VRB03KT 5SM -DZ BR OVC008
FM101100 VRB03KT 6SM BR OVC005
FM101500 11003KT P6SM OVC007

Example: see airport list